Hillsboro, IL

11:48 PM CDT on April 26, 2017 (GMT -0500)
| | Change Station

Elev -9999 ft 0.00 °N, 0.00 °E | Updated 0 second ago

Rain
Rain
°F
Feels Like °F
N
Wind Variable Wind from North
Gusts mph

Today
High -- | Low -- °F
--% Chance of Precip.
Yesterday
High -- | Low -- °F
Precip. -- in
Pressure 29.40 in
Visibility 7.0 miles
Clouds Scattered Clouds 700 ft
Mostly Cloudy 4500 ft
Overcast 7500 ft
Dew Point Not available.
Humidity Not available.
Rainfall --
Snow Depth Not available.
6:05 AM 7:46 PM
New Moon, 1% visible
METAR K3LF 270435Z AUTO 12017G20KT 7SM -RA SCT007 BKN045 OVC075 15/14 A2940 RMK AO2 LTG DSNT SE P0002 T01450141
Pressure 29.40 in
Visibility 7.0 miles
Clouds Scattered Clouds 700 ft
Mostly Cloudy 4500 ft
Overcast 7500 ft
Dew Point Not available.
Humidity Not available.
Rainfall --
Snow Depth Not available.
6:05 AM 7:46 PM
New Moon, 1% visible
METAR K3LF 270435Z AUTO 12017G20KT 7SM -RA SCT007 BKN045 OVC075 15/14 A2940 RMK AO2 LTG DSNT SE P0002 T01450141

Get Severe Weather Alerts

Thanks for signing up!

Be on the lookout for a verification email in your inbox.

You'll start receiving the daily forecast at 8 AM.

×

10-Day Weather Forecast

Almanac

Astronomy

Apr. 26, 2017 Rise Set
Actual Time
Civil Twilight
Nautical Twilight
Astronomical Twilight
Moon
Length of Visible Light
Length of Day
Tomorrow will be .
, % of the Moon is Illuminated

Today's Extremes

State Highs State Lows

Community

WunderPhotos

WunderBlog® & News

Nearby

Air Quality

  Air Quality AQ Index Pollutant
Not available.

Snow Depth

Station Depth Elevation

Earthquake Activity

City Distance Mag. Time & Date
Minimum magnitude displayed is 2.5.

Coastal Water Temperatures

Place Temperature

Stations

Nearby Weather Stations

Station Location Temp. Windchill Dew Point Humidity Wind Precip. Elev Updated Type
                   

Watches & Warnings

There are currently no watches in effect.